createdAt,value
2019-02-20T00:00:08.715Z,78.45
2019-02-20T00:01:08.739Z,78.55
2019-02-20T00:02:08.664Z,78.34
2019-02-20T00:03:08.663Z,78.14
2019-02-20T00:04:08.652Z,77.94
2019-02-20T00:05:08.645Z,78.24
2019-02-20T00:06:08.646Z,77.83
2019-02-20T00:07:08.625Z,78.04
2019-02-20T00:08:08.600Z,78.04
2019-02-20T00:09:09.341Z,78.04
2019-02-20T00:10:08.584Z,77.83
2019-02-20T00:11:08.589Z,77.94
2019-02-20T00:12:08.589Z,77.94
2019-02-20T00:13:08.549Z,78.04
2019-02-20T00:14:08.540Z,78.14
2019-02-20T00:15:08.534Z,77.94
2019-02-20T00:16:08.538Z,77.94
2019-02-20T00:17:08.507Z,77.73
2019-02-20T00:18:08.493Z,77.62
2019-02-20T00:19:08.483Z,77.62
2019-02-20T00:20:08.472Z,77.62
2019-02-20T00:21:08.949Z,77.42
2019-02-20T00:22:08.447Z,77.73
2019-02-20T00:23:08.434Z,77.73
2019-02-20T00:24:08.431Z,77.83
2019-02-20T00:25:08.430Z,77.73
2019-02-20T00:26:08.406Z,77.83
2019-02-20T00:27:08.408Z,77.83
2019-02-20T00:28:08.378Z,77.83
2019-02-20T00:29:08.376Z,77.42
2019-02-20T00:30:08.369Z,77.52
2019-02-20T00:31:08.372Z,77.42
2019-02-20T00:32:08.360Z,77.42
2019-02-20T00:33:08.320Z,77.31
2019-02-20T00:34:08.395Z,77.52
2019-02-20T00:35:08.319Z,77.42
2019-02-20T00:36:08.311Z,77.62
2019-02-20T00:37:08.310Z,77.22
2019-02-20T00:38:08.892Z,77.42
2019-02-20T00:39:08.884Z,77.42
2019-02-20T00:40:08.246Z,77.62
2019-02-20T00:41:08.236Z,77.52
2019-02-20T00:42:08.254Z,77.52
2019-02-20T00:43:08.216Z,77.73
2019-02-20T00:44:08.201Z,77.62
2019-02-20T00:45:08.182Z,77.94
2019-02-20T00:46:08.183Z,77.83
2019-02-20T00:47:08.188Z,77.94
2019-02-20T00:48:08.150Z,77.31
2019-02-20T00:49:08.157Z,77.42
2019-02-20T00:50:08.132Z,77.31
2019-02-20T00:51:08.131Z,77.73
2019-02-20T00:52:08.126Z,77.94
2019-02-20T00:53:08.113Z,77.83
2019-02-20T00:54:09.373Z,78.08
2019-02-20T00:55:08.073Z,78.08
2019-02-20T00:56:08.074Z,77.83
2019-02-20T00:57:08.079Z,78.38
2019-02-20T00:58:08.056Z,78.24
2019-02-20T00:59:08.030Z,78.18
2019-02-20T01:00:08.039Z,78.08
2019-02-20T01:01:08.017Z,78.04
2019-02-20T01:02:08.464Z,78.28
2019-02-20T01:03:07.991Z,77.94
2019-02-20T01:04:07.995Z,77.94
2019-02-20T01:05:07.968Z,77.94
2019-02-20T01:06:07.960Z,77.62
2019-02-20T01:07:07.973Z,77.73
2019-02-20T01:08:07.940Z,77.62
2019-02-20T01:09:07.932Z,77.83
2019-02-20T01:10:08.889Z,77.83
2019-02-20T01:11:07.904Z,77.62
2019-02-20T01:12:07.918Z,77.94
2019-02-20T01:13:07.893Z,77.83
2019-02-20T01:14:07.882Z,77.83
2019-02-20T01:15:07.861Z,78.04
2019-02-20T01:16:07.847Z,77.94
2019-02-20T01:17:07.868Z,77.94
2019-02-20T01:18:07.834Z,78.24
2019-02-20T01:19:07.819Z,77.94
2019-02-20T01:20:07.809Z,77.94
2019-02-20T01:21:07.793Z,78.24
2019-02-20T01:22:07.828Z,78.34
2019-02-20T01:23:07.782Z,78.45
2019-02-20T01:24:07.769Z,78.34
2019-02-20T01:25:07.749Z,78.14
2019-02-20T01:26:07.729Z,78.34
2019-02-20T01:27:07.737Z,78.34
2019-02-20T01:28:07.717Z,78.34
2019-02-20T01:29:07.710Z,78.45
2019-02-20T01:30:07.691Z,77.83
2019-02-20T01:31:07.688Z,78.24
2019-02-20T01:32:07.690Z,78.04
2019-02-20T01:33:07.671Z,78.04
2019-02-20T01:34:07.670Z,77.94
2019-02-20T01:35:07.635Z,77.94
2019-02-20T01:36:07.626Z,77.94
2019-02-20T01:37:07.626Z,78.24
2019-02-20T01:38:07.696Z,78.45
2019-02-20T01:39:07.592Z,78.14
2019-02-20T01:40:07.628Z,77.94
2019-02-20T01:41:07.584Z,77.94
2019-02-20T01:42:07.588Z,77.94
2019-02-20T01:43:07.549Z,78.14
2019-02-20T01:44:07.538Z,77.94
2019-02-20T01:45:07.550Z,77.94
2019-02-20T01:46:07.516Z,77.94
2019-02-20T01:47:07.537Z,77.94
2019-02-20T01:48:07.501Z,77.94
2019-02-20T01:49:07.485Z,78.04
2019-02-20T01:50:07.513Z,77.94
2019-02-20T01:51:07.465Z,77.62
2019-02-20T01:52:07.449Z,77.62
2019-02-20T01:53:10.449Z,77.83
2019-02-20T01:54:07.442Z,77.73
2019-02-20T01:55:07.416Z,77.62
2019-02-20T01:56:07.404Z,77.83
2019-02-20T01:57:07.399Z,77.83
2019-02-20T01:58:07.395Z,77.83
2019-02-20T01:59:07.382Z,78.14
2019-02-20T02:00:07.368Z,78.28
2019-02-20T02:01:08.372Z,78.24
2019-02-20T02:02:07.360Z,78.49
2019-02-20T02:03:07.482Z,78.34
2019-02-20T02:04:07.320Z,78.24
2019-02-20T02:05:14.934Z,78.38
2019-02-20T02:06:08.293Z,77.97
2019-02-20T02:07:07.296Z,77.94
2019-02-20T02:08:07.295Z,77.73
2019-02-20T02:09:07.271Z,77.62
2019-02-20T02:10:07.252Z,77.62
2019-02-20T02:11:07.242Z,77.52
2019-02-20T02:12:07.240Z,77.42
2019-02-20T02:13:07.240Z,77.52
2019-02-20T02:14:07.213Z,77.52
2019-02-20T02:15:07.204Z,77.42
2019-02-20T02:16:07.183Z,77.31
2019-02-20T02:17:07.179Z,77.22
2019-02-20T02:18:07.182Z,77.52
2019-02-20T02:19:07.148Z,77.42
2019-02-20T02:20:07.140Z,77.11
2019-02-20T02:21:07.152Z,77.22
2019-02-20T02:22:07.115Z,77.22
2019-02-20T02:23:07.124Z,77.31
2019-02-20T02:24:07.106Z,77.31
2019-02-20T02:25:07.087Z,77.31
2019-02-20T02:26:10.923Z,76.80
2019-02-20T02:27:07.060Z,77.42
2019-02-20T02:28:07.067Z,77.45
2019-02-20T02:29:07.057Z,77.52
2019-02-20T02:30:07.039Z,77.25
2019-02-20T02:31:07.027Z,76.84
2019-02-20T02:32:07.029Z,77.66
2019-02-20T02:33:07.028Z,77.76
2019-02-20T02:34:06.988Z,77.66
2019-02-20T02:35:07.068Z,77.56
2019-02-20T02:36:06.974Z,77.45
2019-02-20T02:37:06.952Z,77.87
2019-02-20T02:38:06.964Z,77.56
2019-02-20T02:39:06.925Z,77.45
2019-02-20T02:40:06.920Z,77.56
2019-02-20T02:41:06.906Z,77.76
2019-02-20T02:42:06.902Z,77.66
2019-02-20T02:43:06.903Z,77.56
2019-02-20T02:44:06.875Z,77.15
2019-02-20T02:45:06.874Z,77.04
2019-02-20T02:46:06.862Z,77.15
2019-02-20T02:47:06.847Z,76.84
2019-02-20T02:48:06.848Z,77.04
2019-02-20T02:49:06.822Z,77.25
2019-02-20T02:50:06.820Z,76.90
2019-02-20T02:51:06.801Z,77.15
2019-02-20T02:52:06.792Z,77.25
2019-02-20T02:53:06.806Z,76.73
2019-02-20T02:54:06.777Z,76.84
2019-02-20T02:55:06.759Z,76.84
2019-02-20T02:56:06.747Z,76.73
2019-02-20T02:57:06.759Z,77.35
2019-02-20T02:58:06.775Z,76.84
2019-02-20T02:59:06.718Z,77.04
2019-02-20T03:00:06.693Z,76.94
2019-02-20T03:01:06.685Z,76.84
2019-02-20T03:02:06.675Z,77.25
2019-02-20T03:03:06.681Z,77.45
2019-02-20T03:04:06.648Z,77.49
2019-02-20T03:05:06.654Z,77.45
2019-02-20T03:06:06.626Z,77.56
2019-02-20T03:07:06.624Z,77.15
2019-02-20T03:08:06.644Z,77.15
2019-02-20T03:09:07.424Z,76.73
2019-02-20T03:10:06.588Z,76.94
2019-02-20T03:11:06.584Z,77.25
2019-02-20T03:12:06.686Z,77.39
2019-02-20T03:13:06.585Z,77.15
2019-02-20T03:14:06.544Z,76.84
2019-02-20T03:15:06.556Z,77.04
2019-02-20T03:16:06.531Z,77.04
2019-02-20T03:17:06.509Z,77.04
2019-02-20T03:18:06.514Z,76.77
2019-02-20T03:19:06.498Z,76.98
2019-02-20T03:20:06.481Z,77.25
2019-02-20T03:21:06.459Z,76.94
2019-02-20T03:22:06.451Z,76.84
2019-02-20T03:23:06.535Z,76.84
2019-02-20T03:24:06.432Z,77.15
2019-02-20T03:25:06.414Z,76.73
2019-02-20T03:26:06.413Z,76.21
2019-02-20T03:27:06.399Z,76.32
2019-02-20T03:28:06.432Z,76.42
2019-02-20T03:29:06.369Z,76.21
2019-02-20T03:30:06.374Z,76.63
2019-02-20T03:31:06.353Z,76.42
2019-02-20T03:32:06.362Z,76.73
2019-02-20T03:33:06.368Z,76.32
2019-02-20T03:34:08.760Z,76.63
2019-02-20T03:35:06.305Z,76.42
2019-02-20T03:36:06.298Z,76.35
2019-02-20T03:37:06.288Z,76.84
2019-02-20T03:38:06.284Z,76.32
2019-02-20T03:39:06.265Z,76.42
2019-02-20T03:40:06.271Z,76.63
2019-02-20T03:41:06.247Z,76.63
2019-02-20T03:42:06.225Z,76.53
2019-02-20T03:43:06.243Z,76.42
2019-02-20T03:44:06.223Z,76.63
2019-02-20T03:45:06.211Z,76.84
2019-02-20T03:46:06.193Z,76.42
2019-02-20T03:47:06.172Z,76.32
2019-02-20T03:48:06.206Z,76.32
2019-02-20T03:49:06.161Z,76.73
2019-02-20T03:50:06.141Z,76.42
2019-02-20T03:51:06.144Z,76.32
2019-02-20T03:52:06.121Z,76.73
2019-02-20T03:53:06.132Z,76.87
2019-02-20T03:54:06.100Z,76.35
2019-02-20T03:55:06.087Z,76.73
2019-02-20T03:56:06.071Z,76.32
2019-02-20T03:57:06.063Z,76.84
2019-02-20T03:58:06.049Z,76.42
2019-02-20T03:59:06.063Z,76.73
2019-02-20T04:00:06.029Z,76.21
2019-02-20T04:01:06.025Z,76.53
2019-02-20T04:02:06.007Z,77.04
2019-02-20T04:03:06.003Z,77.25
2019-02-20T04:04:06.007Z,76.53
2019-02-20T04:05:05.981Z,77.04
2019-02-20T04:06:05.959Z,76.73
2019-02-20T04:07:05.962Z,76.32
2019-02-20T04:08:05.950Z,76.12
2019-02-20T04:09:05.951Z,76.53
2019-02-20T04:10:05.923Z,76.21
2019-02-20T04:11:05.913Z,77.04
2019-02-20T04:12:05.893Z,76.94
2019-02-20T04:13:05.894Z,76.32
2019-02-20T04:14:05.898Z,76.63
2019-02-20T04:15:05.880Z,76.94
2019-02-20T04:16:05.855Z,76.42
2019-02-20T04:17:05.839Z,76.42
2019-02-20T04:18:05.835Z,76.42
2019-02-20T04:19:05.826Z,76.21
2019-02-20T04:20:05.804Z,76.39
2019-02-20T04:21:05.816Z,76.01
2019-02-20T04:22:05.783Z,76.12
2019-02-20T04:23:05.773Z,76.12
2019-02-20T04:24:05.784Z,76.08
2019-02-20T04:25:05.754Z,75.70
2019-02-20T04:26:05.749Z,75.91
2019-02-20T04:27:05.735Z,76.08
2019-02-20T04:28:05.735Z,75.56
2019-02-20T04:29:05.723Z,75.49
2019-02-20T04:30:05.717Z,76.08
2019-02-20T04:31:05.699Z,75.91
2019-02-20T04:32:05.679Z,75.98
2019-02-20T04:33:05.677Z,75.98
2019-02-20T04:34:05.659Z,75.56
2019-02-20T04:35:05.638Z,75.98
2019-02-20T04:36:05.636Z,75.67
2019-02-20T04:37:05.611Z,75.98
2019-02-20T04:38:05.620Z,75.67
2019-02-20T04:39:05.630Z,75.56
2019-02-20T04:40:05.597Z,75.56
2019-02-20T04:41:05.578Z,76.18
2019-02-20T04:42:05.570Z,75.87
2019-02-20T04:43:05.564Z,76.08
2019-02-20T04:44:05.564Z,75.67
2019-02-20T04:45:05.531Z,75.56
2019-02-20T04:46:05.526Z,75.67
2019-02-20T04:47:05.515Z,75.46
2019-02-20T04:48:05.504Z,75.87
2019-02-20T04:49:05.512Z,76.08
2019-02-20T04:50:05.483Z,76.18
2019-02-20T04:51:05.488Z,76.32
2019-02-20T04:52:05.448Z,76.42
2019-02-20T04:53:05.453Z,76.42
2019-02-20T04:54:12.906Z,76.42
2019-02-20T04:55:06.443Z,76.42
2019-02-20T04:56:05.410Z,76.21
2019-02-20T04:57:05.402Z,76.32
2019-02-20T04:58:05.423Z,76.63
2019-02-20T04:59:05.398Z,76.53
2019-02-20T05:00:05.372Z,76.18
2019-02-20T05:01:05.394Z,76.08
2019-02-20T05:02:05.348Z,75.98
2019-02-20T05:03:05.333Z,75.67
2019-02-20T05:04:05.520Z,75.87
2019-02-20T05:05:05.312Z,75.98
2019-02-20T05:06:05.321Z,75.26
2019-02-20T05:07:05.286Z,75.36
2019-02-20T05:08:05.293Z,75.36
2019-02-20T05:09:05.279Z,75.98
2019-02-20T05:10:05.259Z,75.15
2019-02-20T05:11:05.244Z,75.87
2019-02-20T05:12:05.275Z,75.56
2019-02-20T05:13:05.228Z,75.98
2019-02-20T05:14:05.235Z,75.56
2019-02-20T05:15:05.201Z,75.98
2019-02-20T05:16:05.196Z,75.56
2019-02-20T05:17:05.191Z,75.87
2019-02-20T05:18:05.168Z,75.46
2019-02-20T05:19:05.179Z,75.98
2019-02-20T05:20:05.184Z,75.67
2019-02-20T05:21:05.136Z,75.67
2019-02-20T05:22:05.123Z,75.26
2019-02-20T05:23:05.116Z,75.77
2019-02-20T05:24:05.135Z,75.05
2019-02-20T05:25:05.098Z,75.01
2019-02-20T05:26:05.072Z,75.05
2019-02-20T05:27:05.069Z,74.95
2019-02-20T05:28:05.062Z,74.74
2019-02-20T05:29:05.060Z,74.74
2019-02-20T05:30:05.047Z,75.12
2019-02-20T05:31:05.016Z,75.22
2019-02-20T05:32:05.012Z,74.74
2019-02-20T05:33:04.998Z,75.22
2019-02-20T05:34:05.039Z,75.26
2019-02-20T05:35:04.971Z,75.01
2019-02-20T05:36:04.963Z,75.15
2019-02-20T05:37:04.946Z,75.15
2019-02-20T05:38:04.948Z,75.01
2019-02-20T05:39:04.956Z,75.77
2019-02-20T05:40:04.956Z,74.84
2019-02-20T05:41:04.919Z,74.84
2019-02-20T05:42:04.899Z,74.43
2019-02-20T05:43:04.915Z,74.43
2019-02-20T05:44:04.895Z,74.95
2019-02-20T05:45:04.867Z,74.95
2019-02-20T05:46:04.877Z,74.63
2019-02-20T05:47:04.909Z,74.43
2019-02-20T05:48:04.828Z,74.43
2019-02-20T05:49:04.847Z,74.43
2019-02-20T05:50:04.834Z,74.53
2019-02-20T05:51:04.802Z,74.50
2019-02-20T05:52:04.800Z,74.53
2019-02-20T05:53:04.778Z,73.91
2019-02-20T05:54:04.787Z,74.43
2019-02-20T05:55:04.762Z,73.81
2019-02-20T05:56:04.760Z,74.02
2019-02-20T05:57:04.745Z,73.78
2019-02-20T05:58:04.727Z,73.98
2019-02-20T05:59:05.027Z,74.19
2019-02-20T06:00:04.740Z,74.19
2019-02-20T06:01:04.700Z,74.19
2019-02-20T06:02:04.677Z,74.19
2019-02-20T06:03:05.133Z,74.29
2019-02-20T06:04:04.664Z,74.08
2019-02-20T06:05:04.654Z,74.19
2019-02-20T06:06:04.668Z,74.19
2019-02-20T06:07:04.638Z,74.19
2019-02-20T06:08:04.632Z,74.29
2019-02-20T06:09:04.629Z,74.19
2019-02-20T06:10:04.593Z,74.19
2019-02-20T06:11:14.478Z,74.08
2019-02-20T06:12:05.571Z,74.29
2019-02-20T06:13:04.558Z,74.08
2019-02-20T06:14:04.570Z,74.08
2019-02-20T06:15:04.536Z,74.08
2019-02-20T06:16:04.535Z,74.19
2019-02-20T06:17:04.514Z,74.40
2019-02-20T06:18:04.490Z,74.29
2019-02-20T06:19:04.494Z,74.19
2019-02-20T06:20:04.496Z,73.98
2019-02-20T06:21:04.483Z,74.19
2019-02-20T06:22:04.456Z,74.19
2019-02-20T06:23:04.464Z,74.08
2019-02-20T06:24:04.437Z,74.08
2019-02-20T06:25:04.441Z,74.19
2019-02-20T06:26:04.425Z,74.29
2019-02-20T06:27:04.429Z,74.29
2019-02-20T06:28:04.378Z,74.29
2019-02-20T06:29:04.382Z,74.19
2019-02-20T06:30:04.385Z,74.19
2019-02-20T06:31:04.379Z,74.08
2019-02-20T06:32:04.348Z,74.19
2019-02-20T06:33:04.348Z,73.78
2019-02-20T06:34:04.337Z,73.68
2019-02-20T06:35:04.354Z,73.26
2019-02-20T06:36:04.322Z,73.26
2019-02-20T06:37:04.303Z,73.36
2019-02-20T06:38:04.302Z,73.57
2019-02-20T06:39:04.279Z,73.16
2019-02-20T06:40:04.297Z,73.26
2019-02-20T06:41:04.267Z,72.75
2019-02-20T06:42:04.268Z,72.92
2019-02-20T06:43:04.249Z,72.85
2019-02-20T06:44:04.221Z,72.33
2019-02-20T06:45:04.226Z,72.33
2019-02-20T06:46:04.229Z,73.26
2019-02-20T06:47:04.194Z,72.96
2019-02-20T06:48:04.172Z,72.64
2019-02-20T06:49:04.178Z,73.57
2019-02-20T06:50:04.171Z,72.96
2019-02-20T06:51:04.142Z,73.05
2019-02-20T06:52:04.139Z,72.96
2019-02-20T06:53:04.125Z,72.85
2019-02-20T06:54:04.125Z,72.20
2019-02-20T06:55:04.131Z,72.33
2019-02-20T06:56:04.084Z,72.33
2019-02-20T06:57:04.154Z,76.35
2019-02-20T06:58:04.077Z,77.97
2019-02-20T06:59:04.052Z,76.11
2019-02-20T07:00:04.069Z,75.56
2019-02-20T07:01:04.030Z,73.40
2019-02-20T07:02:04.026Z,74.08
2019-02-20T07:03:04.006Z,71.48
2019-02-20T07:04:04.014Z,70.86
2019-02-20T07:05:04.033Z,71.48
2019-02-20T07:06:03.970Z,71.28
2019-02-20T07:07:03.971Z,70.45
2019-02-20T07:08:03.954Z,70.76
2019-02-20T07:09:03.941Z,70.04
2019-02-20T07:10:03.949Z,70.25
2019-02-20T07:11:03.921Z,70.45
2019-02-20T07:12:03.914Z,69.90
2019-02-20T07:13:03.916Z,69.70
2019-02-20T07:14:03.888Z,69.29
2019-02-20T07:15:03.895Z,69.05
2019-02-20T07:16:03.874Z,68.98
2019-02-20T07:17:03.897Z,68.85
2019-02-20T07:18:03.843Z,68.13
2019-02-20T07:19:03.827Z,67.82
2019-02-20T07:20:03.834Z,68.33
2019-02-20T07:21:03.809Z,68.30
2019-02-20T07:22:03.789Z,67.92
2019-02-20T07:23:03.792Z,68.43
2019-02-20T07:24:03.785Z,67.68
2019-02-20T07:25:03.877Z,67.68
2019-02-20T07:26:03.764Z,67.38
2019-02-20T07:27:03.741Z,67.07
2019-02-20T07:28:03.738Z,67.48
2019-02-20T07:29:03.722Z,67.27
2019-02-20T07:30:03.730Z,67.17
2019-02-20T07:31:03.708Z,67.07
2019-02-20T07:32:03.703Z,66.76
2019-02-20T07:33:03.681Z,67.27
2019-02-20T07:34:05.436Z,66.76
2019-02-20T07:35:03.659Z,66.76
2019-02-20T07:36:03.654Z,66.25
2019-02-20T07:37:03.652Z,66.79
2019-02-20T07:38:03.620Z,66.89
2019-02-20T07:39:03.610Z,67.30
2019-02-20T07:40:03.618Z,68.02
2019-02-20T07:41:03.643Z,67.33
2019-02-20T07:42:03.611Z,67.65
2019-02-20T07:43:03.575Z,67.54
2019-02-20T07:44:03.553Z,67.75
2019-02-20T07:45:03.536Z,67.95
2019-02-20T07:46:03.559Z,68.26
2019-02-20T07:47:03.530Z,68.08
2019-02-20T07:48:03.516Z,68.19
2019-02-20T07:49:03.502Z,68.70
2019-02-20T07:50:03.499Z,69.04
2019-02-20T07:51:03.492Z,69.56
2019-02-20T07:52:03.478Z,69.35
2019-02-20T07:53:03.469Z,69.15
2019-02-20T07:54:03.455Z,69.25
2019-02-20T07:55:12.593Z,69.66
2019-02-20T07:56:04.443Z,69.35
2019-02-20T07:57:03.436Z,69.35
2019-02-20T07:58:03.406Z,69.35
2019-02-20T07:59:03.390Z,69.56
2019-02-20T08:00:03.430Z,69.35
2019-02-20T08:01:03.397Z,69.46
2019-02-20T08:02:03.373Z,69.18
2019-02-20T08:03:03.341Z,69.56
2019-02-20T08:04:03.332Z,69.49
2019-02-20T08:05:03.321Z,69.90
2019-02-20T08:06:03.335Z,69.90
2019-02-20T08:07:03.300Z,70.21
2019-02-20T08:08:03.297Z,70.42
2019-02-20T08:09:03.277Z,70.00
2019-02-20T08:10:03.299Z,70.42
2019-02-20T08:11:03.270Z,70.42
2019-02-20T08:12:03.241Z,70.31
2019-02-20T08:13:03.244Z,70.21
2019-02-20T08:14:03.235Z,70.00
2019-02-20T08:15:03.210Z,70.34
2019-02-20T08:16:03.221Z,70.14
2019-02-20T08:17:03.189Z,70.34
2019-02-20T08:18:03.186Z,70.42
2019-02-20T08:19:03.186Z,70.24
2019-02-20T08:20:03.173Z,70.34
2019-02-20T08:21:03.214Z,70.31
2019-02-20T08:22:03.144Z,69.83
2019-02-20T08:23:03.146Z,70.21
2019-02-20T08:24:03.110Z,70.21
2019-02-20T08:25:03.099Z,70.14
2019-02-20T08:26:03.106Z,70.45
2019-02-20T08:27:03.086Z,70.86
2019-02-20T08:28:03.077Z,70.10
2019-02-20T08:29:03.077Z,70.10
2019-02-20T08:30:03.050Z,70.55
2019-02-20T08:31:03.059Z,70.65
2019-02-20T08:32:03.044Z,70.45
2019-02-20T08:33:03.003Z,70.65
2019-02-20T08:34:03.004Z,70.45
2019-02-20T08:35:02.995Z,70.55
2019-02-20T08:36:03.012Z,70.76
2019-02-20T08:37:02.971Z,70.65
2019-02-20T08:38:02.950Z,70.76
2019-02-20T08:39:02.940Z,70.55
2019-02-20T08:40:02.936Z,70.65
2019-02-20T08:41:02.940Z,70.55
2019-02-20T08:42:02.918Z,70.76
2019-02-20T08:43:02.899Z,70.86
2019-02-20T08:44:02.891Z,70.65
2019-02-20T08:45:02.885Z,71.37
2019-02-20T08:46:02.926Z,71.27
2019-02-20T08:47:02.891Z,70.79
2019-02-20T08:48:02.850Z,71.48
2019-02-20T08:49:02.844Z,71.61
2019-02-20T08:50:02.829Z,71.61
2019-02-20T08:51:02.837Z,71.58
2019-02-20T08:52:02.804Z,71.78
2019-02-20T08:53:02.804Z,71.37
2019-02-20T08:54:04.480Z,71.37
2019-02-20T08:55:02.766Z,71.58
2019-02-20T08:56:02.781Z,71.69
2019-02-20T08:57:02.753Z,71.17
2019-02-20T08:58:02.742Z,71.78
2019-02-20T08:59:02.752Z,71.06
2019-02-20T09:00:02.719Z,71.27
2019-02-20T09:01:02.728Z,70.96
2019-02-20T09:02:02.694Z,71.44
2019-02-20T09:03:02.688Z,70.96
2019-02-20T09:04:02.676Z,70.86
2019-02-20T09:05:02.673Z,70.52
2019-02-20T09:06:02.659Z,70.52
2019-02-20T09:07:02.645Z,70.62
2019-02-20T09:08:02.635Z,70.72
2019-02-20T09:09:02.625Z,70.52
2019-02-20T09:10:02.600Z,70.72
2019-02-20T09:11:02.612Z,70.42
2019-02-20T09:12:02.581Z,70.31
2019-02-20T09:13:02.579Z,70.72
2019-02-20T09:14:02.563Z,70.59
2019-02-20T09:15:02.551Z,70.52
2019-02-20T09:16:02.557Z,70.48
2019-02-20T09:17:02.519Z,70.59
2019-02-20T09:18:02.516Z,70.48
2019-02-20T09:19:02.501Z,70.48
2019-02-20T09:20:03.453Z,70.38
2019-02-20T09:21:02.500Z,69.97
2019-02-20T09:22:02.477Z,70.04
2019-02-20T09:23:02.453Z,69.94
2019-02-20T09:24:02.459Z,69.94
2019-02-20T09:25:02.443Z,70.07
2019-02-20T09:26:02.439Z,70.04
2019-02-20T09:27:02.408Z,70.35
2019-02-20T09:28:02.404Z,69.94
2019-02-20T09:29:02.402Z,69.87
2019-02-20T09:30:02.388Z,70.45
2019-02-20T09:31:02.409Z,69.84
2019-02-20T09:32:02.373Z,69.53
2019-02-20T09:33:02.354Z,69.94
2019-02-20T09:34:02.337Z,69.53
2019-02-20T09:35:02.327Z,69.94
2019-02-20T09:36:02.338Z,70.14
2019-02-20T09:37:02.322Z,70.76
2019-02-20T09:38:02.309Z,70.04
2019-02-20T09:39:02.282Z,70.25
2019-02-20T09:40:02.276Z,70.25
2019-02-20T09:41:02.269Z,69.94
2019-02-20T09:42:02.262Z,70.01
2019-02-20T09:43:02.237Z,69.39
2019-02-20T09:44:02.240Z,69.29
2019-02-20T09:45:02.223Z,68.98
2019-02-20T09:46:02.217Z,69.18
2019-02-20T09:47:02.203Z,69.18
2019-02-20T09:48:02.191Z,69.09
2019-02-20T09:49:02.172Z,69.09
2019-02-20T09:50:02.157Z,69.29
2019-02-20T09:51:02.163Z,69.39
2019-02-20T09:52:02.137Z,69.49
2019-02-20T09:53:02.132Z,69.56
2019-02-20T09:54:02.116Z,69.60
2019-02-20T09:55:02.091Z,69.36
2019-02-20T09:56:02.138Z,68.95
2019-02-20T09:57:02.078Z,68.64
2019-02-20T09:58:02.091Z,68.64
2019-02-20T09:59:02.080Z,68.74
2019-02-20T10:00:02.058Z,68.98
2019-02-20T10:01:03.038Z,69.09
2019-02-20T10:02:02.030Z,68.98
2019-02-20T10:03:02.017Z,68.74
2019-02-20T10:04:01.999Z,68.95
2019-02-20T10:05:01.998Z,68.95
2019-02-20T10:06:01.983Z,68.64
2019-02-20T10:07:02.002Z,68.64
2019-02-20T10:08:01.959Z,68.95
2019-02-20T10:09:01.956Z,68.54
2019-02-20T10:10:01.946Z,69.05
2019-02-20T10:11:01.941Z,68.64
2019-02-20T10:12:01.940Z,68.67
2019-02-20T10:13:01.908Z,68.85
2019-02-20T10:14:01.891Z,68.88
2019-02-20T10:15:01.883Z,68.85
2019-02-20T10:16:01.875Z,68.98
2019-02-20T10:17:01.868Z,68.57
2019-02-20T10:18:01.849Z,68.64
2019-02-20T10:19:01.845Z,68.74
2019-02-20T10:20:01.837Z,68.85
2019-02-20T10:21:01.815Z,68.85
2019-02-20T10:22:01.846Z,68.85
2019-02-20T10:23:01.815Z,68.64
2019-02-20T10:24:01.793Z,68.43
2019-02-20T10:25:01.768Z,68.23
2019-02-20T10:26:01.769Z,68.33
2019-02-20T10:27:01.763Z,67.92
2019-02-20T10:28:01.745Z,68.10
2019-02-20T10:29:01.734Z,67.99
2019-02-20T10:30:01.725Z,68.61
2019-02-20T10:31:01.717Z,67.99
2019-02-20T10:32:01.768Z,67.99
2019-02-20T10:33:01.707Z,68.19
2019-02-20T10:34:01.665Z,67.79
2019-02-20T10:35:01.663Z,67.79
2019-02-20T10:36:01.656Z,68.51
2019-02-20T10:37:01.668Z,68.10
2019-02-20T10:38:01.656Z,68.19
2019-02-20T10:39:01.612Z,68.19
2019-02-20T10:40:01.622Z,67.99
2019-02-20T10:41:01.586Z,67.68
2019-02-20T10:42:01.616Z,67.89
2019-02-20T10:43:03.584Z,67.68
2019-02-20T10:44:01.565Z,68.19
2019-02-20T10:45:01.545Z,68.61
2019-02-20T10:46:01.546Z,68.30
2019-02-20T10:47:01.541Z,68.30
2019-02-20T10:48:01.521Z,68.81
2019-02-20T10:49:01.505Z,68.81
2019-02-20T10:50:01.498Z,68.61
2019-02-20T10:51:01.474Z,68.57
2019-02-20T10:52:01.506Z,68.27
2019-02-20T10:53:01.467Z,68.57
2019-02-20T10:54:01.458Z,68.78
2019-02-20T10:55:01.444Z,68.16
2019-02-20T10:56:09.201Z,67.96
2019-02-20T10:57:02.429Z,67.65
2019-02-20T10:58:01.404Z,67.86
2019-02-20T10:59:01.395Z,68.27
2019-02-20T11:00:01.384Z,68.16
2019-02-20T11:01:01.376Z,67.83
2019-02-20T11:02:01.394Z,67.93
2019-02-20T11:03:01.348Z,67.83
2019-02-20T11:04:01.346Z,66.90
2019-02-20T11:05:01.342Z,67.11
2019-02-20T11:06:01.321Z,67.32
2019-02-20T11:07:01.319Z,67.72
2019-02-20T11:08:01.303Z,67.11
2019-02-20T11:09:01.288Z,66.90
2019-02-20T11:10:01.269Z,66.28
2019-02-20T11:11:01.277Z,66.22
2019-02-20T11:12:01.275Z,67.03
2019-02-20T11:13:01.237Z,67.96
2019-02-20T11:14:01.230Z,67.52
2019-02-20T11:15:01.225Z,67.44
2019-02-20T11:16:01.207Z,67.35
2019-02-20T11:17:01.228Z,66.83
2019-02-20T11:18:01.183Z,66.60
2019-02-20T11:19:01.176Z,66.80
2019-02-20T11:20:01.162Z,66.90
2019-02-20T11:21:01.154Z,66.90
2019-02-20T11:22:01.169Z,66.80
2019-02-20T11:23:01.134Z,67.11
2019-02-20T11:24:01.255Z,66.70
2019-02-20T11:25:01.099Z,66.19
2019-02-20T11:26:01.158Z,66.49
2019-02-20T11:27:01.098Z,66.39
2019-02-20T11:28:01.072Z,66.70
2019-02-20T11:29:01.084Z,66.39
2019-02-20T11:30:01.068Z,66.90
2019-02-20T11:31:01.048Z,66.70
2019-02-20T11:32:01.041Z,66.70
2019-02-20T11:33:01.023Z,66.80
2019-02-20T11:34:01.878Z,66.08
2019-02-20T11:35:00.998Z,66.77
2019-02-20T11:36:00.991Z,66.77
2019-02-20T11:37:00.978Z,65.95
2019-02-20T11:38:00.966Z,67.28
2019-02-20T11:39:00.951Z,66.67
2019-02-20T11:40:00.949Z,66.90
2019-02-20T11:41:00.926Z,66.67
2019-02-20T11:42:00.968Z,66.67
2019-02-20T11:43:00.933Z,66.46
2019-02-20T11:44:00.897Z,66.67
2019-02-20T11:45:00.887Z,66.87
2019-02-20T11:46:00.875Z,66.77
2019-02-20T11:47:00.891Z,66.87
2019-02-20T11:48:00.845Z,67.18
2019-02-20T11:49:00.838Z,66.56
2019-02-20T11:50:00.833Z,66.16
2019-02-20T11:51:00.817Z,66.16
2019-02-20T11:52:00.827Z,65.64
2019-02-20T11:53:00.800Z,65.95
2019-02-20T11:54:00.786Z,66.36
2019-02-20T11:55:00.771Z,66.16
2019-02-20T11:56:00.774Z,65.95
2019-02-20T11:57:00.757Z,66.46
2019-02-20T11:58:01.198Z,66.46
2019-02-20T11:59:00.736Z,66.12
2019-02-20T12:00:00.712Z,66.43
2019-02-20T12:01:00.715Z,66.12
2019-02-20T12:02:00.691Z,65.64
2019-02-20T12:03:00.735Z,64.69
2019-02-20T12:04:00.673Z,64.79
2019-02-20T12:05:00.681Z,64.48
2019-02-20T12:06:00.661Z,64.89
2019-02-20T12:07:00.652Z,65.10
2019-02-20T12:08:00.661Z,64.69
2019-02-20T12:09:00.617Z,65.51
2019-02-20T12:10:00.605Z,65.58
2019-02-20T12:11:00.588Z,66.02
2019-02-20T12:12:00.586Z,65.68
2019-02-20T12:13:00.587Z,65.30
2019-02-20T12:14:00.577Z,65.10
2019-02-20T12:15:00.548Z,64.89
2019-02-20T12:16:00.537Z,65.10
2019-02-20T12:17:00.525Z,64.17
2019-02-20T12:18:00.531Z,64.48
2019-02-20T12:19:00.505Z,64.17
2019-02-20T12:20:00.505Z,65.20
2019-02-20T12:21:00.500Z,64.35
2019-02-20T12:22:00.469Z,65.10
2019-02-20T12:23:00.479Z,65.10
2019-02-20T12:24:00.445Z,65.07
2019-02-20T12:25:00.439Z,64.48
2019-02-20T12:26:01.429Z,64.65
2019-02-20T12:27:00.425Z,64.59
2019-02-20T12:28:00.435Z,64.14
2019-02-20T12:29:00.406Z,64.25
2019-02-20T12:30:00.378Z,64.56
2019-02-20T12:31:00.374Z,64.45
2019-02-20T12:32:00.359Z,64.65
2019-02-20T12:33:00.372Z,64.65
2019-02-20T12:34:01.611Z,65.17
2019-02-20T12:35:00.333Z,64.65
2019-02-20T12:36:00.422Z,64.76
2019-02-20T12:37:00.314Z,64.56
2019-02-20T12:38:00.313Z,64.76
2019-02-20T12:39:00.286Z,64.79
2019-02-20T12:40:00.315Z,64.79
2019-02-20T12:41:00.265Z,64.79
2019-02-20T12:42:00.247Z,64.69
2019-02-20T12:43:00.297Z,64.69
2019-02-20T12:44:00.221Z,64.89
2019-02-20T12:45:00.302Z,64.89
2019-02-20T12:46:00.196Z,65.07
2019-02-20T12:47:00.190Z,64.28
2019-02-20T12:48:00.204Z,64.76
2019-02-20T12:49:00.171Z,64.38
2019-02-20T12:50:00.294Z,64.59
2019-02-20T12:51:00.155Z,65.10
2019-02-20T12:52:00.208Z,62.95